Latest Weather Observations for Sellicks Hill

IDS60801

Issued at 8:31 am CDT Friday 6 March 2015 (issued every 30 minutes, with the page automatically refreshed every 10 minutes)

About weather observations | Map of weather stations | Latest weather observations for SA | Other Formats
Station Details ID: 023886 Name: MOUNT TERRIBLE RADAR Lat: -35.33 Lon: 138.50 Height: 385.7 m
Data from the previous 72 hours. | See also: Recent months for locations in South Australia
Date/Time
CDT
Temp
°C
App
Temp
°C
Dew
Point
Rel
Hum
%
Delta-T
°C
Wind Press
QNH
hPa
Press
MSL
hPa
Rain
since 9 am
mm
Dir
 
Spd
km/h
Gust
km/h
Spd
kts
Gust
kts
06/08:30am - - - - - SW 7 17 4 9 - - -
06/08:00am - - - - - SW 7 15 4 8 - - -
06/07:30am - - - - - WSW 6 13 3 7 - - -
06/07:00am - - - - - SW 7 13 4 7 - - -
06/06:30am - - - - - WSW 7 19 4 10 - - -
06/06:00am - - - - - SW 7 19 4 10 - - -
06/05:30am - - - - - WSW 7 19 4 10 - - -
06/05:00am - - - - - WSW 7 19 4 10 - - -
06/04:30am - - - - - WSW 7 17 4 9 - - -
06/04:00am - - - - - WSW 9 19 5 10 - - -
06/03:30am - - - - - WSW 7 15 4 8 - - -
06/03:00am - - - - - SW 9 17 5 9 - - -
06/02:30am - - - - - WSW 6 13 3 7 - - -
06/02:00am - - - - - SW 7 11 4 6 - - -
06/01:30am - - - - - SW 6 13 3 7 - - -
06/01:00am - - - - - WSW 6 13 3 7 - - -
06/12:30am - - - - - SSW 11 20 6 11 - - -
06/12:00am - - - - - SSW 11 20 6 11 - - -
 
Date/Time
CDT
Temp
°C
App
Temp
°C
Dew
Point
Rel
Hum
%
Delta-T
°C
Wind Press
QNH
hPa
Press
MSL
hPa
Rain
since 9 am
mm
Dir
 
Spd
km/h
Gust
km/h
Spd
kts
Gust
kts
05/11:30pm - - - - - SSW 13 20 7 11 - - -
05/11:00pm - - - - - SSW 9 15 5 8 - - -
05/10:30pm - - - - - SSW 9 17 5 9 - - -
05/10:00pm - - - - - SSE 11 17 6 9 - - -
05/09:30pm - - - - - S 19 26 10 14 - - -
05/09:00pm - - - - - S 19 24 10 13 - - -
05/08:30pm - - - - - S 17 26 9 14 - - -
05/08:00pm - - - - - SSE 19 24 10 13 - - -
05/07:30pm - - - - - S 26 33 14 18 - - -
05/07:00pm - - - - - S 24 32 13 17 - - -
05/06:30pm - - - - - S 22 32 12 17 - - -
05/06:00pm - - - - - SSW 13 22 7 12 - - -
05/05:30pm - - - - - S 19 32 10 17 - - -
05/05:00pm - - - - - S 17 26 9 14 - - -
05/04:30pm - - - - - S 15 26 8 14 - - -
05/04:00pm - - - - - S 17 26 9 14 - - -
05/03:30pm - - - - - S 15 26 8 14 - - -
05/03:00pm - - - - - SSW 9 19 5 10 - - -
05/02:30pm - - - - - S 17 26 9 14 - - -
05/02:00pm - - - - - SSE 17 32 9 17 - - -
05/01:30pm - - - - - SSE 22 33 12 18 - - -
05/01:00pm - - - - - SSE 20 33 11 18 - - -
05/12:30pm - - - - - SSE 24 35 13 19 - - -
05/12:00pm - - - - - S 20 30 11 16 - - -
05/11:30am - - - - - SSE 33 44 18 24 - - -
05/11:00am - - - - - SSE 22 33 12 18 - - -
05/10:30am - - - - - SSE 32 41 17 22 - - -
05/10:00am - - - - - S 30 39 16 21 - - -
05/09:30am - - - - - S 30 41 16 22 - - -
05/09:00am - - - - - SSE 30 37 16 20 - - -
05/08:30am - - - - - SSE 24 32 13 17 - - -
05/08:00am - - - - - SSE 28 33 15 18 - - -
05/07:30am - - - - - SSE 24 32 13 17 - - -
05/07:00am - - - - - S 19 30 10 16 - - -
05/06:30am - - - - - S 30 39 16 21 - - -
05/06:00am - - - - - S 19 24 10 13 - - -
05/05:30am - - - - - S 24 33 13 18 - - -
05/05:00am - - - - - S 13 22 7 12 - - -
05/04:30am - - - - - S 15 24 8 13 - - -
05/04:00am - - - - - SSW 15 30 8 16 - - -
05/03:30am - - - - - SSW 17 32 9 17 - - -
05/03:00am - - - - - SSW 15 26 8 14 - - -
05/02:30am - - - - - SSW 15 24 8 13 - - -
05/02:00am - - - - - S 15 28 8 15 - - -
05/01:30am - - - - - SSW 17 33 9 18 - - -
05/01:00am - - - - - SSW 15 24 8 13 - - -
05/12:30am - - - - - WSW 13 35 7 19 - - -
05/12:00am - - - - - W 11 20 6 11 - - -
 
Date/Time
CDT
Temp
°C
App
Temp
°C
Dew
Point
Rel
Hum
%
Delta-T
°C
Wind Press
QNH
hPa
Press
MSL
hPa
Rain
since 9 am
mm
Dir
 
Spd
km/h
Gust
km/h
Spd
kts
Gust
kts
04/11:30pm - - - - - WSW 9 17 5 9 - - -
04/11:00pm - - - - - WSW 11 20 6 11 - - -
04/10:30pm - - - - - W 11 26 6 14 - - -
04/10:00pm - - - - - W 7 20 4 11 - - -
04/09:30pm - - - - - W 15 28 8 15 - - -
04/09:00pm - - - - - W 13 24 7 13 - - -
04/08:30pm - - - - - W 15 33 8 18 - - -
04/08:00pm - - - - - W 15 33 8 18 - - -
04/07:30pm - - - - - W 13 24 7 13 - - -
04/07:00pm - - - - - WNW 15 28 8 15 - - -
04/06:30pm - - - - - WNW 15 28 8 15 - - -
04/06:00pm - - - - - WNW 15 28 8 15 - - -
04/05:30pm - - - - - WNW 13 30 7 16 - - -
04/05:00pm - - - - - WNW 15 28 8 15 - - -
04/04:30pm - - - - - WNW 13 24 7 13 - - -
04/04:00pm - - - - - WNW 13 26 7 14 - - -
04/03:30pm - - - - - WNW 11 22 6 12 - - -
04/03:00pm - - - - - WNW 11 24 6 13 - - -
04/02:30pm - - - - - WNW 13 20 7 11 - - -
04/02:00pm - - - - - WNW 11 26 6 14 - - -
04/01:30pm - - - - - WNW 9 17 5 9 - - -
04/01:00pm - - - - - WNW 11 20 6 11 - - -
04/12:30pm - - - - - WNW 13 24 7 13 - - -
04/12:00pm - - - - - WNW 7 17 4 9 - - -
04/11:30am - - - - - WNW 9 19 5 10 - - -
04/11:00am - - - - - WNW 11 17 6 9 - - -
04/10:30am - - - - - WNW 7 19 4 10 - - -
04/10:00am - - - - - WNW 7 17 4 9 - - -
04/09:30am - - - - - W 6 13 3 7 - - -
04/09:00am - - - - - WSW 4 11 2 6 - - -
04/08:30am - - - - - WSW 6 13 3 7 - - -
04/08:00am - - - - - SW 7 13 4 7 - - -
04/07:30am - - - - - SW 11 17 6 9 - - -
04/07:00am - - - - - SW 7 13 4 7 - - -
04/06:30am - - - - - SW 7 11 4 6 - - -
04/06:00am - - - - - SW 4 7 2 4 - - -
04/05:30am - - - - - S 4 6 2 3 - - -
04/05:00am - - - - - SSE 13 17 7 9 - - -
04/04:30am - - - - - SSE 17 19 9 10 - - -
04/04:00am - - - - - S 19 20 10 11 - - -
04/03:30am - - - - - SSE 20 22 11 12 - - -
04/03:00am - - - - - SSE 24 28 13 15 - - -
04/02:30am - - - - - SSE 20 24 11 13 - - -
04/02:00am - - - - - SSE 24 28 13 15 - - -
04/01:30am - - - - - SSE 26 30 14 16 - - -
04/01:00am - - - - - SSE 24 28 13 15 - - -
04/12:30am - - - - - SSE 26 32 14 17 - - -
04/12:00am - - - - - SSE 24 28 13 15 - - -
 
Date/Time
CDT
Temp
°C
App
Temp
°C
Dew
Point
Rel
Hum
%
Delta-T
°C
Wind Press
QNH
hPa
Press
MSL
hPa
Rain
since 9 am
mm
Dir
 
Spd
km/h
Gust
km/h
Spd
kts
Gust
kts
03/11:30pm - - - - - SSE 28 32 15 17 - - -
03/11:00pm - - - - - SSE 28 33 15 18 - - -
03/10:30pm - - - - - SSE 28 33 15 18 - - -
03/10:00pm - - - - - SSE 30 32 16 17 - - -
03/09:30pm - - - - - SSE 28 32 15 17 - - -
03/09:00pm - - - - - SSE 30 35 16 19 - - -
03/08:30pm - - - - - SSE 30 35 16 19 - - -
03/08:00pm - - - - - SSE 32 35 17 19 - - -
03/07:30pm - - - - - SSE 33 37 18 20 - - -
03/07:00pm - - - - - SSE 33 39 18 21 - - -
03/06:30pm - - - - - SSE 33 39 18 21 - - -
03/06:00pm - - - - - SSE 33 43 18 23 - - -
03/05:30pm - - - - - SSE 33 39 18 21 - - -
03/05:00pm - - - - - SSE 32 37 17 20 - - -
03/04:30pm - - - - - SSE 32 39 17 21 - - -
03/04:00pm - - - - - SSE 30 39 16 21 - - -
03/03:30pm - - - - - SSE 32 39 17 21 - - -
03/03:00pm - - - - - SSE 28 37 15 20 - - -
03/02:30pm - - - - - SSE 28 37 15 20 - - -
03/02:00pm - - - - - SSE 30 39 16 21 - - -
03/01:30pm - - - - - SSE 28 35 15 19 - - -
03/01:00pm - - - - - SSE 24 35 13 19 - - -
03/12:30pm - - - - - SSE 24 32 13 17 - - -
03/12:00pm - - - - - SSE 28 37 15 20 - - -
03/11:30am - - - - - SE 30 39 16 21 - - -
03/11:00am - - - - - SSE 26 35 14 19 - - -
03/10:30am - - - - - SSE 28 35 15 19 - - -
03/10:00am - - - - - SSE 30 35 16 19 - - -
03/09:30am - - - - - SE 32 37 17 20 - - -
03/09:00am - - - - - SE 32 37 17 20 - - -

Other Formats:

Comma delimited format used in spreadsheet applications
http://www.bom.gov.au/fwo/IDS60801/IDS60801.95679.axf

JavaScript Object Notation format (JSON) in row-major order
http://www.bom.gov.au/fwo/IDS60801/IDS60801.95679.json